Richfield, Utah
Current Conditions -  °F | °C
As of 6:55 PM on Friday 24 Oct 2014 (Local Time) from KDTA Reporting Station
Clear Clear  
Wind Chill: 68°   Ceiling: Unl
Heat Index: 68°   Visibility: 10mi
Dew Point: 26°   Wind: 9mph
Humidity: 21%   Direction: 170°S
Pressure: 30.11"   Gusts: NA
Location:  38.77°N, 112.08°W
Report Text: KDTA 250055Z AUTO 17008KT 10SM CLR 20/M03 A3011 RMK AO1 T01991031
Loading
Personal Weather Stations






























Interactive Weather Map
Tropical Storm Tracking
New forecast layout! Learn more

10-Day Weather Forecast

Advertisements
Track Severe Weather on mobile